| Date | Time | Temp. (oF) | Dew Point (oF) | Rel. Hum. (%) | Press. (in.) | Wind Dir. | Wind Speed (mph) | Hourly Rainfall (in.) |
|
|---|---|---|---|---|---|---|---|---|---|
| 1 | 02/15 | 00:00 | 48 | 48 | 100 | 29.89 | SSW | 5 | 0.00 |
| 2 | 02/14 | 23:00 | 49 | 49 | 100 | 29.87 | S | 6 | 0.00 |
| 3 | 02/14 | 22:00 | 49 | 49 | 100 | 29.87 | S | 7 | 0.01 |
| 4 | 02/14 | 21:00 | 47 | 46 | 100 | 29.88 | SSE | 5 | 0.00 |
| 5 | miss | miss | miss | miss | miss | miss | miss | miss | |
| 6 | 02/14 | 20:43 | 47 | 46 | 100 | 29.89 | SSE | 7 | 0.04 |
| 7 | miss | miss | miss | miss | miss | miss | miss | miss | |
| 8 | 02/14 | 20:41 | 47 | 46 | 100 | 29.88 | SSW | 3 | 0.04 |
| 9 | miss | miss | miss | miss | miss | miss | miss | miss | |
| 10 | 02/14 | 20:39 | 47 | 46 | 100 | 29.88 | SE | 5 | 0.04 |
| 11 | miss | miss | miss | miss | miss | miss | miss | miss | |
| 12 | 02/14 | 20:37 | 47 | 46 | 100 | 29.88 | S | 5 | 0.04 |
| 13 | miss | miss | miss | miss | miss | miss | miss | miss | |
| 14 | 02/14 | 20:35 | 47 | 46 | 100 | 29.88 | S | 5 | 0.03 |
| 15 | miss | miss | miss | miss | miss | miss | miss | miss | |
| 16 | 02/14 | 20:33 | 47 | 46 | 100 | 29.89 | SSE | 4 | 0.03 |
| 17 | miss | miss | miss | miss | miss | miss | miss | miss | |
| 18 | 02/14 | 20:31 | 47 | 46 | 100 | 29.89 | S | 5 | 0.03 |
| 19 | miss | miss | miss | miss | miss | miss | miss | miss | |
| 20 | 02/14 | 20:29 | 47 | 46 | 100 | 29.88 | SSE | 3 | 0.03 |
| 21 | miss | miss | miss | miss | miss | miss | miss | miss | |
| 22 | 02/14 | 20:27 | 47 | 46 | 100 | 29.88 | ESE | 5 | 0.03 |
| 23 | miss | miss | miss | miss | miss | miss | miss | miss | |
| 24 | 02/14 | 20:25 | 47 | 46 | 100 | 29.88 | SE | 3 | 0.03 |
| 25 | miss | miss | miss | miss | miss | miss | miss | miss | |
| 26 | 02/14 | 20:24 | 47 | 46 | 100 | 29.89 | S | 4 | 0.03 |
| 27 | miss | miss | miss | miss | miss | miss | miss | miss | |
| 28 | 02/14 | 20:24 | 47 | 46 | 100 | 29.89 | S | 4 | 0.03 |
| 29 | 02/14 | 20:00 | 46 | 45 | 100 | 29.90 | S | 4 | 0.04 |
| 30 | 02/14 | 19:00 | 45 | 45 | 100 | 29.94 | SSE | 4 | 0.05 |
| 31 | 02/14 | 18:00 | 44 | 44 | 100 | 29.97 | S | 2 | 0.07 |
| 32 | 02/14 | 17:00 | 42 | 41 | 100 | 29.98 | SSE | 5 | 0.01 |
| 33 | 02/14 | 16:00 | 40 | 40 | 100 | 30.02 | SE | 9 | 0.04 |
| 34 | 02/14 | 15:00 | 40 | 40 | 100 | 30.08 | SSE | 8 | 0.05 |
| 35 | 02/14 | 14:00 | 39 | 39 | 100 | 30.11 | ESE | 11 | 0.02 |
| 36 | 02/14 | 13:00 | 37 | 36 | 100 | 30.18 | S | 7 | 0.04 |
| 37 | 02/14 | 12:00 | 35 | 35 | 100 | 30.23 | SSW | 2 | 0.01 |
| 38 | 02/14 | 11:00 | 34 | 33 | 100 | 30.26 | ESE | 7 | 0.01 |
| 39 | 02/14 | 10:00 | 33 | 32 | 99 | 30.28 | SE | 4 | 0.00 |
| 40 | miss | miss | miss | miss | miss | miss | miss | miss | |
| 41 | 02/14 | 09:31 | 33 | 32 | 98 | 30.29 | E | 4 | 0.00 |
| 42 | miss | miss | miss | miss | miss | miss | miss | miss | |
| 43 | 02/14 | 09:29 | 33 | 32 | 98 | 30.29 | SE | 4 | 0.00 |
| 44 | miss | miss | miss | miss | miss | miss | miss | miss | |
| 45 | 02/14 | 09:27 | 33 | 32 | 97 | 30.29 | ESE | 8 | 0.00 |
| 46 | miss | miss | miss | miss | miss | miss | miss | miss | |
| 47 | 02/14 | 09:25 | 33 | 32 | 97 | 30.29 | E | 4 | 0.00 |
| 48 | miss | miss | miss | miss | miss | miss | miss | miss | |
| 49 | 02/14 | 09:23 | 33 | 32 | 97 | 30.29 | SSE | 4 | 0.00 |
| 50 | miss | miss | miss | miss | miss | miss | miss | miss | |
| 51 | 02/14 | 09:23 | 33 | 32 | 97 | 30.29 | SSE | 4 | 0.00 |
| 52 | miss | miss | miss | miss | miss | miss | miss | miss | |
| 53 | 02/14 | 09:23 | 33 | 32 | 97 | 30.29 | SSE | 4 | 0.00 |
| 54 | miss | miss | miss | miss | miss | miss | miss | miss | |
| 55 | 02/14 | 09:23 | 33 | 32 | 97 | 30.29 | SSE | 4 | 0.00 |
| 56 | miss | miss | miss | miss | miss | miss | miss | miss | |
| 57 | 02/14 | 09:23 | 33 | 32 | 97 | 30.29 | SSE | 4 | 0.00 |
| 58 | miss | miss | miss | miss | miss | miss | miss | miss | |
| 59 | 02/14 | 09:23 | 33 | 32 | 97 | 30.29 | SSE | 4 | 0.00 |
| 60 | miss | miss | miss | miss | miss | miss | miss | miss | |
| 61 | 02/14 | 09:23 | 33 | 32 | 97 | 30.29 | SSE | 4 | 0.00 |
| 62 | miss | miss | miss | miss | miss | miss | miss | miss | |
| 63 | 02/14 | 09:23 | 33 | 32 | 97 | 30.29 | SSE | 4 | 0.00 |
| 64 | 02/14 | 09:00 | 33 | 31 | 95 | 30.30 | SE | 9 | 0.00 |
| 65 | 02/14 | 08:00 | 32 | 28 | 88 | 30.32 | E | 5 | 0.00 |
| 66 | 02/14 | 07:00 | 32 | 27 | 83 | 30.32 | ESE | 5 | 0.00 |
| 67 | 02/14 | 06:00 | 35 | 24 | 66 | 30.32 | S | 6 | 0.00 |
| 68 | 02/14 | 05:00 | 35 | 25 | 67 | 30.31 | E | 6 | 0.00 |
| 69 | 02/14 | 04:00 | 35 | 24 | 64 | 30.30 | SSE | 4 | 0.00 |
| 70 | 02/14 | 03:00 | 36 | 21 | 55 | 30.32 | SSE | 6 | 0.00 |
| 71 | 02/14 | 02:00 | 36 | 19 | 51 | 30.32 | ESE | 2 | 0.00 |
| 72 | 02/14 | 01:00 | 34 | 20 | 57 | 30.33 | ESE | 3 | 0.00 |
| 73 | 02/14 | 00:00 | 33 | 20 | 59 | 30.32 | NNE | 2 | 0.00 |
| 74 | miss | miss | miss | miss | miss | miss | miss | miss | |
| 75 | 02/13 | 23:14 | 33 | 20 | 60 | 30.31 | ENE | 2 | 0.00 |
| 76 | miss | miss | miss | miss | miss | miss | miss | miss | |
| 77 | 02/13 | 23:12 | 33 | 20 | 59 | 30.31 | ENE | 3 | 0.00 |
| 78 | miss | miss | miss | miss | miss | miss | miss | miss | |
| 79 | 02/13 | 23:10 | 33 | 19 | 58 | 30.31 | E | 4 | 0.00 |
| 80 | miss | miss | miss | miss | miss | miss | miss | miss | |
| 81 | 02/13 | 23:08 | 33 | 19 | 57 | 30.31 | E | 3 | 0.00 |
| 82 | miss | miss | miss | miss | miss | miss | miss | miss | |
| 83 | 02/13 | 23:06 | 33 | 18 | 56 | 30.32 | E | 3 | 0.00 |
| 84 | miss | miss | miss | miss | miss | miss | miss | miss | |
| 85 | 02/13 | 23:04 | 33 | 18 | 56 | 30.32 | E | 3 | 0.00 |
| 86 | miss | miss | miss | miss | miss | miss | miss | miss | |
| 87 | 02/13 | 23:02 | 33 | 18 | 56 | 30.32 | ENE | 3 | 0.00 |
| 88 | miss | miss | miss | miss | miss | miss | miss | miss | |
| 89 | 02/13 | 23:00 | 33 | 18 | 56 | 30.33 | ENE | 1 | 0.00 |
| 90 | 02/13 | 22:59 | 33 | 18 | 56 | 30.33 | NE | 0 | 0.00 |
| 91 | 02/13 | 22:58 | 33 | 18 | 56 | 30.33 | NE | 1 | 0.00 |
| 92 | 02/13 | 22:57 | 33 | 18 | 56 | 30.33 | ENE | 1 | 0.00 |
| 93 | 02/13 | 22:56 | 33 | 18 | 56 | 30.33 | ENE | 1 | 0.00 |
| 94 | 02/13 | 22:55 | 33 | 18 | 56 | 30.33 | ENE | 0 | 0.00 |
| 95 | miss | miss | miss | miss | miss | miss | miss | miss | |
| 96 | 02/13 | 22:53 | 33 | 18 | 56 | 30.33 | ENE | 1 | 0.00 |
| 97 | miss | miss | miss | miss | miss | miss | miss | miss | |
| 98 | 02/13 | 22:52 | 33 | 18 | 56 | 30.33 | ENE | 0 | 0.00 |
| 99 | 02/13 | 22:00 | 34 | 19 | 54 | 30.33 | E | 1 | 0.00 |
| 100 | 02/13 | 21:00 | 34 | 19 | 56 | 30.32 | ENE | 3 | 0.00 |
| 101 | 02/13 | 20:00 | 35 | 18 | 51 | 30.32 | NE | 0 | 0.00 |
| 102 | 02/13 | 19:00 | 36 | 16 | 44 | 30.29 | SSE | 0 | 0.00 |
| 103 | 02/13 | 18:00 | 37 | 18 | 46 | 30.27 | ESE | 0 | 0.00 |
| 104 | 02/13 | 17:00 | 39 | 17 | 41 | 30.25 | S | 4 | 0.00 |
| 105 | 02/13 | 16:00 | 40 | 16 | 38 | 30.23 | NNE | 5 | 0.00 |
| 106 | 02/13 | 15:00 | 42 | 17 | 37 | 30.20 | NE | 7 | 0.00 |
| 107 | 02/13 | 14:00 | 41 | 18 | 41 | 30.21 | WSW | 4 | 0.00 |
| 108 | 02/13 | 13:00 | 40 | 18 | 41 | 30.21 | NNW | 4 | 0.00 |
| 109 | 02/13 | 12:00 | 39 | 19 | 46 | 30.23 | WSW | 6 | 0.00 |
| 110 | 02/13 | 11:00 | 37 | 17 | 45 | 30.22 | NE | 5 | 0.00 |
| 111 | 02/13 | 10:00 | 36 | 20 | 53 | 30.20 | N | 10 | 0.00 |
| 112 | 02/13 | 09:00 | 34 | 23 | 66 | 30.18 | NNW | 5 | 0.00 |
| 113 | 02/13 | 08:00 | 31 | 23 | 74 | 30.15 | SSE | 1 | 0.00 |
| 114 | 02/13 | 07:00 | 30 | 21 | 71 | 30.10 | SW | 0 | 0.00 |
| 115 | 02/13 | 06:00 | 32 | 22 | 68 | 30.06 | W | 4 | 0.00 |
| 116 | 02/13 | 05:00 | 30 | 21 | 70 | 30.04 | WSW | 4 | 0.00 |
| 117 | 02/13 | 04:00 | 29 | 21 | 72 | 29.98 | SSW | 1 | 0.00 |
| 118 | 02/13 | 03:00 | 31 | 21 | 67 | 29.96 | NW | 3 | 0.00 |
| 119 | 02/13 | 02:00 | 32 | 21 | 66 | 29.97 | WSW | 0 | 0.00 |
| 120 | 02/13 | 01:00 | 34 | 21 | 61 | 29.95 | W | 3 | 0.00 |
| 121 | 02/13 | 00:00 | 32 | 24 | 75 | 29.93 | WNW | 7 | 0.00 |